Time;durP1;ratioP1;P1;durP2;ratioP2;P2;SDS_P1;SDS_P2;PMS_P1;PMS_P2;Temp;Humidity;BMP_temperature;BMP_pressure;BME280_temperature;BME280_humidity;BME280_pressure;Samples;Min_cycle;Max_cycle;Signal;HPM_P1;HPM_P2
2021/04/04 00:05:27;;;;;;;14.37;7.10;;;6.30;66.20;;;;;;4885084;29;20456;-89
2021/04/04 00:33:47;;;;;;;;;;;;;;;;;;;;;
2021/04/04 01:34:48;;;;;;;11.43;8.43;;;5.20;71.70;;;;;;4756399;29;20514;-87
2021/04/04 01:37:28;;;;;;;11.07;7.27;;;5.10;71.60;;;;;;4821911;29;20481;-87
2021/04/04 01:43:15;;;;;;;14.80;7.70;;;4.90;72.90;;;;;;4833492;29;20503;-87
2021/04/04 01:46:16;;;;;;;11.00;7.33;;;5.00;73.60;;;;;;4930670;29;20437;-87
2021/04/04 01:57:24;;;;;;;;;;;;;;;;;;;;;
2021/04/04 02:00:30;;;;;;;8.03;6.80;;;4.90;74.50;;;;;;4840959;29;20442;-85
2021/04/04 03:35:00;;;;;;;;;;;;;;;;;;;;;
2021/04/04 04:46:01;;;;;;;15.13;10.27;;;3.40;84.80;;;;;;4759274;29;20248;-86
2021/04/04 04:49:28;;;;;;;13.80;9.93;;;3.40;85.10;;;;;;4759305;30;20236;-87
2021/04/04 05:06:23;;;;;;;;;;;;;;;;;;;;;
2021/04/04 05:44:32;;;;;;;15.68;8.40;;;3.40;85.80;;;;;;4805338;29;20337;-87
2021/04/04 07:59:28;;;;;;;;;;;;;;;;;;;;;
2021/04/04 08:13:10;;;;;;;8.60;7.77;;;16.70;41.10;;;;;;4900717;29;20450;-88
2021/04/04 08:29:29;;;;;;;8.97;7.27;;;17.50;41.30;;;;;;4848372;29;21067;-88
2021/04/04 08:36:08;;;;;;;9.37;7.10;;;17.50;40.30;;;;;;4843703;29;20484;-88
2021/04/04 08:46:15;;;;;;;;;;;;;;;;;;;;;
2021/04/04 09:34:39;;;;;;;7.37;6.60;;;27.80;26.90;;;;;;4959648;28;20474;-94
2021/04/04 09:40:08;;;;;;;7.13;6.37;;;29.20;25.70;;;;;;4926281;29;20444;-91
2021/04/04 09:45:22;;;;;;;7.53;6.30;;;28.80;25.70;;;;;;4954387;29;20425;-91
2021/04/04 09:48:32;;;;;;;7.83;5.93;;;29.00;25.30;;;;;;4952398;29;20469;-91
2021/04/04 09:58:21;;;;;;;6.67;5.80;;;27.90;25.40;;;;;;4927834;29;20477;-91
2021/04/04 10:04:20;;;;;;;7.50;6.37;;;27.10;25.20;;;;;;5123561;23;20485;-91
2021/04/04 10:06:58;;;;;;;6.10;4.77;;;24.50;27.10;;;;;;4948964;29;20532;-85
2021/04/04 10:09:37;;;;;;;8.70;5.43;;;23.40;28.30;;;;;;4958776;29;20442;-85
2021/04/04 10:12:04;;;;;;;6.33;5.00;;;24.80;27.70;;;;;;4947556;29;20440;-86
2021/04/04 10:14:32;;;;;;;4.87;4.30;;;26.70;26.80;;;;;;4944827;29;20565;-86
2021/04/04 10:17:19;;;;;;;4.93;4.53;;;28.20;25.50;;;;;;4943149;29;20797;-86
2021/04/04 10:19:55;;;;;;;6.67;3.47;;;27.90;24.30;;;;;;4937176;29;20450;-86
2021/04/04 10:22:21;;;;;;;5.33;4.30;;;29.10;23.50;;;;;;4942518;29;20448;-86
2021/04/04 10:24:48;;;;;;;4.67;4.20;;;28.90;23.40;;;;;;4957353;29;20461;-86
2021/04/04 10:27:25;;;;;;;5.07;4.37;;;29.70;23.60;;;;;;4944936;29;20462;-86
2021/04/04 10:30:06;;;;;;;3.73;3.43;;;28.90;22.80;;;;;;4944509;29;20457;-85
2021/04/04 10:32:33;;;;;;;4.93;3.87;;;29.50;22.00;;;;;;4944091;29;20459;-85
2021/04/04 10:34:59;;;;;;;4.17;3.60;;;27.10;22.80;;;;;;4942201;29;20904;-86
2021/04/04 10:37:29;;;;;;;6.57;4.20;;;26.40;24.30;;;;;;4940579;29;20471;-86
2021/04/04 10:39:57;;;;;;;5.80;4.37;;;27.10;24.70;;;;;;4940315;29;20457;-86
2021/04/04 10:42:23;;;;;;;5.17;4.23;;;26.40;24.90;;;;;;4943720;29;20464;-86
2021/04/04 10:44:49;;;;;;;8.20;4.60;;;24.60;24.90;;;;;;4937749;29;20454;-85
2021/04/04 10:47:21;;;;;;;4.47;4.13;;;24.40;26.70;;;;;;4936332;29;20501;-85
2021/04/04 10:49:49;;;;;;;4.13;3.73;;;25.70;25.90;;;;;;4923835;29;20457;-86
2021/04/04 10:52:15;;;;;;;3.97;3.47;;;27.70;24.30;;;;;;4923853;29;20527;-86
2021/04/04 10:54:42;;;;;;;3.93;3.63;;;29.70;23.20;;;;;;4922643;29;20486;-86
2021/04/04 10:57:09;;;;;;;4.63;3.53;;;29.50;22.10;;;;;;4923413;29;20474;-86
2021/04/04 10:59:37;;;;;;;4.40;4.00;;;29.90;22.00;;;;;;4921429;29;20566;-86
2021/04/04 11:02:04;;;;;;;4.07;3.63;;;30.20;21.70;;;;;;4920503;29;20459;-86
2021/04/04 11:04:32;;;;;;;4.10;3.80;;;30.30;22.20;;;;;;4918830;29;20513;-86
2021/04/04 11:07:00;;;;;;;4.67;3.93;;;30.20;21.30;;;;;;4920076;29;20626;-87
2021/04/04 11:09:26;;;;;;;5.20;3.87;;;31.40;21.20;;;;;;4921370;29;20473;-87
2021/04/04 11:11:56;;;;;;;3.93;3.60;;;31.40;20.40;;;;;;4918578;29;20447;-86
2021/04/04 11:14:23;;;;;;;3.73;3.30;;;30.50;20.20;;;;;;4922588;29;20451;-86
2021/04/04 11:16:56;;;;;;;3.70;3.40;;;31.10;20.60;;;;;;4921558;29;20446;-86
2021/04/04 11:19:24;;;;;;;3.70;3.33;;;31.30;20.20;;;;;;4923306;29;20864;-87
2021/04/04 11:21:54;;;;;;;6.03;4.10;;;32.20;20.30;;;;;;4920274;29;20451;-86
2021/04/04 11:24:22;;;;;;;5.07;4.57;;;31.40;19.80;;;;;;4918344;29;20451;-86
2021/04/04 11:26:49;;;;;;;3.90;3.50;;;31.10;20.60;;;;;;4938013;29;20442;-86
2021/04/04 11:29:17;;;;;;;8.00;3.73;;;30.00;20.80;;;;;;4935624;29;20917;-87
2021/04/04 11:31:45;;;;;;;3.90;3.60;;;29.50;21.60;;;;;;4938790;29;20481;-86
2021/04/04 11:34:26;;;;;;;4.63;3.57;;;29.20;21.70;;;;;;4928932;29;20457;-87
2021/04/04 11:36:53;;;;;;;4.13;3.70;;;29.40;21.70;;;;;;4932689;29;20454;-86
2021/04/04 11:39:20;;;;;;;4.00;3.60;;;29.60;21.30;;;;;;4928165;29;20447;-88
2021/04/04 11:41:51;;;;;;;4.30;3.00;;;30.00;21.50;;;;;;4928226;29;20443;-85
2021/04/04 11:44:30;;;;;;;3.90;3.50;;;31.30;21.10;;;;;;4936272;29;20434;-85
2021/04/04 11:46:58;;;;;;;3.73;3.37;;;31.70;20.00;;;;;;4927865;29;20454;-88
2021/04/04 11:49:39;;;;;;;6.00;4.63;;;31.00;20.50;;;;;;4923207;29;20553;-86
2021/04/04 11:52:47;;;;;;;5.30;4.80;;;31.60;19.90;;;;;;4938490;29;20465;-87
2021/04/04 11:55:16;;;;;;;5.80;4.57;;;32.30;19.80;;;;;;4931451;29;20492;-86
2021/04/04 11:57:45;;;;;;;5.00;4.23;;;30.80;19.60;;;;;;4934338;29;20484;-86
2021/04/04 12:00:19;;;;;;;4.20;3.67;;;29.50;20.80;;;;;;4918412;29;20458;-86
2021/04/04 12:02:51;;;;;;;5.50;4.40;;;29.90;21.20;;;;;;4918703;29;20936;-86
2021/04/04 12:05:19;;;;;;;5.83;3.93;;;30.90;20.70;;;;;;4918279;29;20553;-86
2021/04/04 12:07:47;;;;;;;7.33;4.27;;;30.70;20.30;;;;;;4922060;29;20533;-86
2021/04/04 12:10:17;;;;;;;4.10;3.80;;;30.20;20.40;;;;;;4922341;29;20461;-86
2021/04/04 12:12:44;;;;;;;4.17;3.77;;;30.30;20.60;;;;;;4933070;29;20451;-86
2021/04/04 12:15:12;;;;;;;6.90;4.47;;;29.40;20.70;;;;;;4939868;29;20946;-87
2021/04/04 12:17:44;;;;;;;5.47;4.60;;;29.10;21.30;;;;;;4940122;29;20476;-85
2021/04/04 12:20:11;;;;;;;5.83;3.97;;;29.70;20.90;;;;;;4943633;29;20511;-87
2021/04/04 12:22:40;;;;;;;3.63;3.33;;;29.60;20.80;;;;;;4946438;29;20442;-84
2021/04/04 12:25:09;;;;;;;5.07;3.80;;;29.90;20.90;;;;;;4943899;29;20447;-85
2021/04/04 12:27:39;;;;;;;4.30;3.60;;;30.70;20.40;;;;;;4949652;29;20525;-85
2021/04/04 12:30:06;;;;;;;5.17;3.87;;;31.20;19.80;;;;;;4940783;29;20449;-86
2021/04/04 12:32:34;;;;;;;3.80;3.50;;;31.00;20.30;;;;;;4940147;29;20457;-86
2021/04/04 12:35:03;;;;;;;3.97;3.67;;;30.90;20.20;;;;;;4945173;29;21002;-86
2021/04/04 12:37:32;;;;;;;5.03;4.20;;;30.70;20.40;;;;;;4950028;29;20468;-86
2021/04/04 12:39:59;;;;;;;3.77;3.47;;;30.90;20.50;;;;;;4946902;29;20446;-86
2021/04/04 12:42:27;;;;;;;4.80;4.07;;;31.10;20.50;;;;;;4942914;29;20451;-85
2021/04/04 12:44:54;;;;;;;3.70;3.40;;;31.20;20.60;;;;;;4951038;29;20461;-86
2021/04/04 12:47:22;;;;;;;5.67;4.43;;;30.70;20.00;;;;;;4949135;29;20586;-86
2021/04/04 12:49:54;;;;;;;3.87;3.40;;;31.00;20.00;;;;;;4949114;29;20456;-86
2021/04/04 12:52:41;;;;;;;4.37;3.80;;;31.70;19.30;;;;;;4946220;29;20928;-86
2021/04/04 12:55:24;;;;;;;4.50;4.10;;;31.10;19.20;;;;;;4937962;29;20547;-85
2021/04/04 12:57:54;;;;;;;4.27;3.87;;;30.80;19.70;;;;;;4942730;29;20477;-86
2021/04/04 13:00:24;;;;;;;6.33;3.87;;;31.70;19.00;;;;;;4940774;29;20454;-85
2021/04/04 13:02:58;;;;;;;5.43;3.97;;;30.70;18.70;;;;;;4961427;29;20434;-84
2021/04/04 13:05:26;;;;;;;6.77;4.57;;;27.40;21.00;;;;;;4946454;29;20478;-86
2021/04/04 13:07:53;;;;;;;6.23;4.10;;;26.40;22.40;;;;;;4942586;29;21025;-86
2021/04/04 13:10:20;;;;;;;6.47;4.20;;;27.50;22.20;;;;;;4942805;29;20456;-87
2021/04/04 13:12:46;;;;;;;6.60;3.83;;;28.20;21.40;;;;;;4942288;29;20457;-87
2021/04/04 13:15:28;;;;;;;8.10;4.80;;;28.40;21.10;;;;;;4922326;29;20899;-87
2021/04/04 13:17:55;;;;;;;4.77;3.90;;;28.60;21.50;;;;;;4931147;29;20476;-87
2021/04/04 13:20:24;;;;;;;3.73;3.43;;;29.40;21.30;;;;;;4939107;29;20449;-86
2021/04/04 13:22:51;;;;;;;7.20;4.27;;;29.90;20.20;;;;;;4925889;29;20844;-87
2021/04/04 13:25:18;;;;;;;3.73;3.23;;;30.20;20.30;;;;;;4923950;29;20460;-87
2021/04/04 13:27:47;;;;;;;4.60;3.73;;;30.50;20.40;;;;;;4939744;29;20479;-86
2021/04/04 13:30:27;;;;;;;5.03;3.97;;;29.00;20.80;;;;;;4938738;29;20445;-87
2021/04/04 13:32:54;;;;;;;5.53;4.13;;;29.30;20.80;;;;;;4940927;29;20444;-86
2021/04/04 13:35:28;;;;;;;8.83;7.70;;;28.90;21.60;;;;;;4950036;29;20486;-85
2021/04/04 13:37:55;;;;;;;8.33;3.93;;;28.70;21.30;;;;;;4943334;29;20470;-86
2021/04/04 13:40:22;;;;;;;5.30;3.90;;;28.90;21.80;;;;;;4941843;29;20541;-85
2021/04/04 13:42:54;;;;;;;5.60;5.10;;;28.70;21.80;;;;;;4939532;29;20441;-85
2021/04/04 13:45:45;;;;;;;6.23;5.17;;;27.20;22.50;;;;;;4939289;29;20445;-86
2021/04/04 13:48:14;;;;;;;5.33;4.57;;;25.80;23.40;;;;;;4951362;29;20467;-86
2021/04/04 13:50:42;;;;;;;5.10;4.50;;;25.20;24.50;;;;;;4958478;29;20480;-86
2021/04/04 13:53:19;;;;;;;4.93;4.30;;;24.50;24.80;;;;;;4952777;29;20442;-85
2021/04/04 13:55:46;;;;;;;5.70;4.50;;;22.80;25.30;;;;;;4956738;29;20492;-87
2021/04/04 13:58:30;;;;;;;5.00;3.50;;;22.00;26.60;;;;;;4957280;29;20611;-87
2021/04/04 14:00:57;;;;;;;4.37;3.57;;;21.70;27.20;;;;;;4945494;29;20430;-86
2021/04/04 14:03:27;;;;;;;9.00;4.97;;;21.80;27.20;;;;;;4956248;28;20451;-88
2021/04/04 14:06:04;;;;;;;6.13;4.20;;;21.90;27.30;;;;;;4946999;29;20434;-89
2021/04/04 14:08:31;;;;;;;4.23;3.83;;;22.70;27.00;;;;;;4950742;29;20457;-89
2021/04/04 14:10:57;;;;;;;4.80;4.30;;;23.60;26.30;;;;;;4951074;29;20458;-90
2021/04/04 14:13:26;;;;;;;4.93;4.43;;;23.60;25.40;;;;;;4950053;29;20433;-88
2021/04/04 14:15:53;;;;;;;6.40;4.13;;;23.40;25.90;;;;;;4947856;29;20491;-88
2021/04/04 14:18:28;;;;;;;4.60;3.50;;;22.90;25.70;;;;;;4945571;29;20544;-87
2021/04/04 14:20:54;;;;;;;6.70;4.00;;;23.20;26.00;;;;;;4946914;29;20443;-85
2021/04/04 14:23:21;;;;;;;4.13;3.70;;;23.80;25.50;;;;;;4946144;29;20453;-87
2021/04/04 14:25:48;;;;;;;4.70;4.23;;;23.90;25.50;;;;;;4946517;29;21011;-86
2021/04/04 14:28:15;;;;;;;4.27;3.43;;;23.90;26.00;;;;;;4949545;29;20472;-87
2021/04/04 14:30:42;;;;;;;6.73;4.10;;;23.60;25.40;;;;;;4949051;29;20470;-86
2021/04/04 14:33:08;;;;;;;4.37;3.97;;;22.60;25.60;;;;;;4952175;29;20459;-86
2021/04/04 14:35:35;;;;;;;4.70;3.57;;;21.50;26.40;;;;;;4950561;29;20486;-88
2021/04/04 14:38:02;;;;;;;5.10;4.07;;;20.70;27.60;;;;;;4948894;29;21371;-86
2021/04/04 14:40:28;;;;;;;5.50;3.97;;;20.30;27.60;;;;;;4949488;29;20457;-86
2021/04/04 14:42:55;;;;;;;5.53;3.83;;;20.80;27.80;;;;;;4948424;29;20503;-86
2021/04/04 14:45:22;;;;;;;7.77;4.50;;;20.90;27.30;;;;;;4948700;29;20442;-86
2021/04/04 14:47:48;;;;;;;9.73;4.43;;;21.40;27.60;;;;;;4949080;29;20505;-86
2021/04/04 14:50:14;;;;;;;6.30;4.03;;;21.20;26.80;;;;;;4946770;29;20446;-86
2021/04/04 14:52:50;;;;;;;5.20;3.50;;;21.60;26.50;;;;;;4946298;29;20541;-86
2021/04/04 14:55:17;;;;;;;4.57;3.33;;;22.30;25.80;;;;;;4946719;29;20491;-86
2021/04/04 14:57:43;;;;;;;10.23;7.67;;;22.50;25.60;;;;;;4953032;29;20511;-85
2021/04/04 15:00:10;;;;;;;4.30;3.90;;;22.10;25.30;;;;;;4950151;29;20455;-86
2021/04/04 15:02:37;;;;;;;3.70;3.30;;;21.90;26.00;;;;;;4946438;29;20959;-85
2021/04/04 15:05:03;;;;;;;4.93;4.10;;;22.30;26.00;;;;;;4946218;29;20456;-85
2021/04/04 15:07:30;;;;;;;5.00;3.87;;;23.00;26.00;;;;;;4949870;29;20480;-85
2021/04/04 15:09:57;;;;;;;3.97;3.57;;;22.40;26.00;;;;;;4958068;29;20456;-85
2021/04/04 15:12:23;;;;;;;5.53;3.67;;;22.40;26.20;;;;;;4949254;29;20825;-86
2021/04/04 15:14:49;;;;;;;6.60;4.30;;;22.70;25.90;;;;;;4943802;29;20452;-86
2021/04/04 15:17:15;;;;;;;4.90;3.57;;;22.80;25.70;;;;;;4945536;29;20535;-85
2021/04/04 15:19:41;;;;;;;4.57;3.40;;;23.10;26.10;;;;;;4946283;29;20471;-87
2021/04/04 15:22:08;;;;;;;4.40;4.00;;;22.60;25.70;;;;;;4947162;29;20458;-85
2021/04/04 15:24:34;;;;;;;3.73;3.43;;;22.90;26.30;;;;;;4951250;29;20462;-85
2021/04/04 15:27:01;;;;;;;3.80;3.20;;;23.00;26.20;;;;;;4951898;29;20432;-85
2021/04/04 15:29:27;;;;;;;7.73;4.50;;;23.20;25.90;;;;;;4954098;28;20455;-85
2021/04/04 15:31:53;;;;;;;4.30;3.60;;;22.30;26.10;;;;;;4946205;29;20465;-85
2021/04/04 15:34:20;;;;;;;3.90;3.43;;;22.40;26.40;;;;;;4945240;29;20498;-85
2021/04/04 15:36:46;;;;;;;9.00;7.37;;;22.70;26.40;;;;;;4942713;29;20706;-86
2021/04/04 15:39:12;;;;;;;6.13;4.10;;;22.80;26.30;;;;;;4943676;29;20462;-85
2021/04/04 15:41:38;;;;;;;5.93;4.53;;;22.30;26.50;;;;;;4944583;29;20481;-85
2021/04/04 15:44:06;;;;;;;5.03;3.77;;;21.20;27.10;;;;;;4948500;29;20453;-85
2021/04/04 15:46:32;;;;;;;7.00;3.97;;;19.90;28.10;;;;;;4944884;29;20471;-87
2021/04/04 15:48:59;;;;;;;6.60;3.20;;;18.30;29.80;;;;;;4950792;29;20470;-84
2021/04/04 15:51:25;;;;;;;8.63;4.10;;;17.70;31.40;;;;;;4956785;29;20442;-85
2021/04/04 15:53:51;;;;;;;5.67;3.97;;;17.40;32.10;;;;;;4950215;29;20460;-85
2021/04/04 15:56:18;;;;;;;4.70;4.03;;;17.40;32.70;;;;;;4953535;29;20484;-85
2021/04/04 15:58:44;;;;;;;5.83;3.73;;;17.30;32.90;;;;;;4952005;29;21047;-86
2021/04/04 16:01:11;;;;;;;8.10;4.30;;;17.20;33.20;;;;;;4945970;29;20515;-86
2021/04/04 16:03:37;;;;;;;8.90;4.20;;;17.00;33.90;;;;;;4943455;29;20454;-86
2021/04/04 16:06:04;;;;;;;5.00;3.77;;;16.90;34.60;;;;;;4945351;29;20449;-86
2021/04/04 16:08:30;;;;;;;7.87;3.90;;;16.70;35.10;;;;;;4954605;29;20529;-86
2021/04/04 16:11:03;;;;;;;5.93;3.90;;;16.60;35.50;;;;;;4951871;29;20449;-85
2021/04/04 16:13:29;;;;;;;7.70;4.93;;;16.50;35.30;;;;;;4946231;29;20438;-85
2021/04/04 16:15:56;;;;;;;6.47;3.97;;;16.50;35.30;;;;;;4934106;29;20515;-85
2021/04/04 16:18:25;;;;;;;11.30;5.40;;;16.50;35.60;;;;;;4939315;29;20466;-86
2021/04/04 16:20:51;;;;;;;6.67;4.57;;;16.50;35.80;;;;;;4939765;29;20972;-86
2021/04/04 16:23:17;;;;;;;8.77;4.03;;;16.40;36.30;;;;;;4942522;29;20453;-86
2021/04/04 16:25:44;;;;;;;5.73;3.73;;;16.30;35.70;;;;;;4948202;29;20446;-86
2021/04/04 16:28:10;;;;;;;4.83;4.00;;;16.20;36.00;;;;;;4954340;29;20476;-85
2021/04/04 16:30:36;;;;;;;7.83;4.10;;;16.10;36.30;;;;;;4949532;29;20449;-86
2021/04/04 16:33:04;;;;;;;7.00;3.70;;;16.00;36.80;;;;;;4946968;29;20500;-85
2021/04/04 16:35:31;;;;;;;5.80;4.50;;;15.90;37.10;;;;;;4944437;29;20495;-85
2021/04/04 16:37:58;;;;;;;4.63;3.67;;;15.90;37.30;;;;;;4942544;29;20473;-86
2021/04/04 16:40:26;;;;;;;9.00;6.00;;;15.80;37.70;;;;;;4943645;29;20979;-86
2021/04/04 16:42:52;;;;;;;5.03;4.07;;;15.70;37.60;;;;;;4938859;29;20464;-88
2021/04/04 16:45:19;;;;;;;5.33;3.83;;;15.70;37.80;;;;;;4936009;29;20449;-87
2021/04/04 16:47:45;;;;;;;6.77;3.73;;;15.70;38.00;;;;;;4935905;29;20465;-87
2021/04/04 16:50:13;;;;;;;8.60;6.53;;;15.60;38.00;;;;;;4936508;29;20523;-87
2021/04/04 16:52:40;;;;;;;7.40;4.40;;;15.60;37.90;;;;;;4936829;29;20508;-87
2021/04/04 16:55:07;;;;;;;6.53;4.60;;;15.50;38.80;;;;;;4940368;29;20883;-87
2021/04/04 16:57:34;;;;;;;6.00;4.20;;;15.40;38.70;;;;;;4946351;29;20576;-87
2021/04/04 17:00:00;;;;;;;6.00;4.60;;;15.40;38.10;;;;;;4958841;29;20434;-87
2021/04/04 17:02:26;;;;;;;6.50;4.50;;;15.40;38.40;;;;;;4941555;29;20453;-87
2021/04/04 17:04:53;;;;;;;9.23;4.10;;;15.30;38.50;;;;;;4952881;29;20441;-87
2021/04/04 17:07:19;;;;;;;5.73;4.53;;;15.20;38.60;;;;;;4949869;28;20494;-87
2021/04/04 17:09:46;;;;;;;7.70;3.73;;;15.10;38.90;;;;;;4939235;29;20450;-87
2021/04/04 17:12:12;;;;;;;7.67;4.50;;;15.00;39.20;;;;;;4939579;29;20479;-88
2021/04/04 17:14:39;;;;;;;8.50;4.80;;;14.90;39.30;;;;;;4939041;29;20821;-87
2021/04/04 17:17:05;;;;;;;6.90;4.63;;;14.80;39.40;;;;;;4938623;29;20491;-87
2021/04/04 17:19:31;;;;;;;10.10;4.60;;;14.80;39.60;;;;;;4940213;29;20825;-87
2021/04/04 17:21:57;;;;;;;14.33;11.30;;;14.70;39.90;;;;;;4938908;29;20452;-87
2021/04/04 17:24:24;;;;;;;11.67;6.83;;;14.50;40.20;;;;;;4940831;29;20453;-87
2021/04/04 17:26:51;;;;;;;9.23;5.23;;;14.50;40.40;;;;;;4951404;29;20427;-87
2021/04/04 17:29:18;;;;;;;7.80;5.13;;;14.40;40.50;;;;;;4953617;29;20437;-86
2021/04/04 17:31:44;;;;;;;8.27;5.13;;;14.50;40.80;;;;;;4947238;29;20461;-86
2021/04/04 17:34:12;;;;;;;9.73;4.90;;;14.30;40.50;;;;;;4950177;29;20467;-86
2021/04/04 17:36:39;;;;;;;10.70;4.97;;;14.20;40.60;;;;;;4936225;29;20561;-86
2021/04/04 17:39:06;;;;;;;7.73;4.67;;;14.10;41.00;;;;;;4937840;29;20479;-86
2021/04/04 17:41:38;;;;;;;6.63;4.90;;;14.10;41.10;;;;;;4937443;29;20836;-86
2021/04/04 17:44:54;;;;;;;9.67;5.50;;;14.10;40.80;;;;;;4937597;29;20458;-86
2021/04/04 17:48:04;;;;;;;5.70;4.97;;;14.00;40.70;;;;;;4888153;29;20473;-85
2021/04/04 17:50:36;;;;;;;8.90;4.80;;;13.80;41.00;;;;;;4952344;29;20469;-86
2021/04/04 17:53:13;;;;;;;5.33;4.50;;;13.70;41.10;;;;;;4940636;29;20454;-86
2021/04/04 17:55:39;;;;;;;7.77;5.20;;;13.70;41.40;;;;;;4936019;29;20485;-86
2021/04/04 17:58:14;;;;;;;9.00;5.23;;;13.70;41.50;;;;;;4938017;29;20476;-86
2021/04/04 18:00:43;;;;;;;6.97;4.60;;;13.60;41.70;;;;;;4936722;29;20959;-87
2021/04/04 18:03:14;;;;;;;7.27;5.87;;;13.50;41.90;;;;;;4935110;29;20448;-87
2021/04/04 18:05:50;;;;;;;9.43;5.70;;;13.40;41.90;;;;;;4936254;29;20468;-87
2021/04/04 18:08:45;;;;;;;8.43;5.93;;;13.40;42.10;;;;;;4939426;29;20465;-87
2021/04/04 18:11:10;;;;;;;8.10;6.03;;;13.30;42.20;;;;;;4936657;29;20458;-87
2021/04/04 18:13:39;;;;;;;8.97;5.93;;;13.20;42.50;;;;;;4939200;29;20529;-88
2021/04/04 18:16:07;;;;;;;7.10;6.27;;;13.10;42.70;;;;;;4941988;29;20266;-87
2021/04/04 18:18:34;;;;;;;10.00;6.40;;;13.00;43.00;;;;;;4940094;29;20477;-87
2021/04/04 18:21:03;;;;;;;11.43;6.50;;;13.00;43.10;;;;;;4945167;29;20500;-88
2021/04/04 18:23:29;;;;;;;9.80;6.43;;;12.90;43.40;;;;;;4944681;29;20462;-87
2021/04/04 18:25:56;;;;;;;11.43;9.23;;;12.90;43.40;;;;;;4946654;29;20518;-86
2021/04/04 18:28:23;;;;;;;11.50;7.40;;;12.90;43.60;;;;;;4958929;29;20465;-87
2021/04/04 18:30:49;;;;;;;9.23;6.23;;;12.80;43.70;;;;;;4957776;28;20517;-87
2021/04/04 18:33:17;;;;;;;12.40;6.97;;;12.70;43.80;;;;;;4960972;28;20470;-86
2021/04/04 18:35:44;;;;;;;11.60;6.37;;;12.80;43.80;;;;;;4959358;28;20477;-87
2021/04/04 18:38:15;;;;;;;7.67;6.63;;;12.80;43.80;;;;;;4954003;29;20471;-87
2021/04/04 18:40:41;;;;;;;11.80;7.40;;;12.70;44.00;;;;;;4955276;29;20438;-87
2021/04/04 18:43:09;;;;;;;10.73;6.70;;;12.60;44.30;;;;;;4953908;29;20438;-87
2021/04/04 18:45:36;;;;;;;9.33;7.20;;;12.70;44.50;;;;;;4959430;29;20514;-87
2021/04/04 18:48:03;;;;;;;10.27;7.77;;;12.60;44.80;;;;;;4955240;29;20487;-88
2021/04/04 18:50:31;;;;;;;7.33;6.50;;;12.50;44.80;;;;;;4956144;29;20431;-87
2021/04/04 18:52:58;;;;;;;11.27;6.83;;;12.50;45.00;;;;;;4961109;28;20459;-87
2021/04/04 18:55:25;;;;;;;10.20;6.30;;;12.50;45.20;;;;;;4950764;29;20502;-88
2021/04/04 18:57:52;;;;;;;12.90;9.33;;;12.40;45.40;;;;;;4950095;29;20472;-86
2021/04/04 19:00:20;;;;;;;14.70;8.83;;;12.30;45.80;;;;;;4946501;29;20442;-87
2021/04/04 19:02:47;;;;;;;10.80;7.43;;;12.20;46.00;;;;;;4945295;29;20441;-88
2021/04/04 19:05:14;;;;;;;10.60;7.47;;;12.20;46.10;;;;;;4942898;29;20458;-88
2021/04/04 19:07:41;;;;;;;10.93;8.40;;;12.20;46.40;;;;;;4948905;29;20463;-87
2021/04/04 19:10:10;;;;;;;9.20;7.07;;;12.10;46.50;;;;;;4957075;28;20480;-87
2021/04/04 19:12:38;;;;;;;9.40;6.90;;;12.10;46.70;;;;;;4957511;28;20439;-88
2021/04/04 19:15:06;;;;;;;9.93;7.10;;;12.10;46.80;;;;;;4943319;29;20542;-88
2021/04/04 19:17:34;;;;;;;8.63;7.37;;;12.00;46.80;;;;;;4942741;29;20469;-87
2021/04/04 19:20:01;;;;;;;12.70;7.50;;;12.00;47.00;;;;;;4939717;29;20449;-87
2021/04/04 19:22:28;;;;;;;8.93;7.70;;;12.00;47.00;;;;;;4944579;29;20541;-88
2021/04/04 19:24:55;;;;;;;12.40;8.03;;;12.00;47.20;;;;;;4954045;29;20439;-88
2021/04/04 19:27:22;;;;;;;12.17;8.87;;;11.90;47.40;;;;;;4947823;29;20558;-90
2021/04/04 19:29:55;;;;;;;9.53;7.47;;;11.70;47.70;;;;;;4952166;29;20442;-91
2021/04/04 19:32:24;;;;;;;13.80;8.17;;;11.60;48.70;;;;;;4958702;29;20442;-89
2021/04/04 19:34:50;;;;;;;15.43;8.83;;;11.70;49.20;;;;;;4952532;29;20430;-91
2021/04/04 19:37:18;;;;;;;14.03;9.97;;;11.60;49.40;;;;;;4953779;28;20482;-90
2021/04/04 19:39:48;;;;;;;9.90;8.77;;;11.50;49.80;;;;;;4944704;29;20919;-90
2021/04/04 19:42:19;;;;;;;15.10;9.27;;;11.40;50.20;;;;;;4949188;29;20504;-90
2021/04/04 19:44:46;;;;;;;16.63;9.73;;;11.40;50.00;;;;;;4944802;29;20453;-91
2021/04/04 19:47:16;;;;;;;13.43;12.03;;;11.30;50.10;;;;;;4949056;29;20465;-89
2021/04/04 19:49:45;;;;;;;15.33;12.33;;;11.30;50.30;;;;;;4948568;29;20466;-89
2021/04/04 19:52:12;;;;;;;14.83;11.13;;;11.20;50.30;;;;;;4952448;29;20503;-89
2021/04/04 19:54:39;;;;;;;15.10;11.80;;;11.10;50.40;;;;;;4953729;29;20517;-90
2021/04/04 19:57:08;;;;;;;19.50;12.53;;;11.00;50.50;;;;;;4957621;28;20469;-91
2021/04/04 19:59:35;;;;;;;15.47;12.13;;;11.00;50.80;;;;;;4960221;28;20449;-91
2021/04/04 20:02:02;;;;;;;17.43;12.00;;;10.90;51.10;;;;;;4960389;28;20433;-91
2021/04/04 20:04:30;;;;;;;15.03;11.77;;;10.90;51.00;;;;;;4959918;28;20445;-91
2021/04/04 20:09:31;;;;;;;16.27;13.67;;;10.70;52.30;;;;;;5003406;23;20513;-86
2021/04/04 20:11:59;;;;;;;21.43;12.80;;;10.60;52.60;;;;;;4958595;28;20421;-88
2021/04/04 20:14:26;;;;;;;14.10;11.27;;;10.60;52.90;;;;;;4950078;28;20454;-88
2021/04/04 20:17:07;;;;;;;;;;;;;;;;;;;;;
2021/04/04 20:20:32;;;;;;;14.27;11.50;;;10.50;52.80;;;;;;4947099;29;20442;-89
2021/04/04 20:27:16;;;;;;;14.67;10.50;;;10.40;52.90;;;;;;4895211;29;20452;-88
2021/04/04 20:33:59;;;;;;;12.93;10.30;;;10.30;53.20;;;;;;4813034;29;20424;-89
2021/04/04 21:14:22;;;;;;;14.87;11.43;;;9.60;56.10;;;;;;4673393;30;20442;-89
2021/04/04 23:13:51;;;;;;;10.73;9.40;;;8.00;63.90;;;;;;4796777;29;20465;-89
